createdAt,value
2018-09-08T00:02:25.110Z,11.24
2018-09-08T00:04:52.642Z,11.24
2018-09-08T00:07:25.203Z,11.23
2018-09-08T00:09:53.156Z,11.23
2018-09-08T00:12:20.675Z,11.21
2018-09-08T00:14:47.141Z,11.20
2018-09-08T00:17:20.457Z,11.22
2018-09-08T00:19:53.176Z,11.26
2018-09-08T00:22:25.694Z,11.25
2018-09-08T00:24:58.559Z,11.24
2018-09-08T00:27:31.131Z,11.23
2018-09-08T00:29:58.780Z,11.25
2018-09-08T00:32:26.865Z,11.26
2018-09-08T00:34:54.431Z,11.27
2018-09-08T00:37:22.097Z,11.28
2018-09-08T00:39:52.612Z,11.30
2018-09-08T00:42:20.665Z,11.34
2018-09-08T00:44:48.354Z,11.37
2018-09-08T00:47:16.212Z,11.40
2018-09-08T00:49:44.140Z,11.42
2018-09-08T00:52:11.685Z,11.45
2018-09-08T00:54:39.319Z,11.47
2018-09-08T00:57:07.196Z,11.48
2018-09-08T00:59:34.846Z,11.49
2018-09-08T01:02:02.469Z,11.50
2018-09-08T01:04:30.033Z,11.49
2018-09-08T01:06:58.969Z,11.49
2018-09-08T01:09:26.511Z,11.47
2018-09-08T01:11:54.043Z,11.46
2018-09-08T01:14:21.616Z,11.46
2018-09-08T01:16:49.611Z,11.44
2018-09-08T01:19:17.290Z,11.43
2018-09-08T01:21:44.838Z,11.42
2018-09-08T01:24:12.377Z,11.40
2018-09-08T01:26:41.094Z,11.39
2018-09-08T01:29:08.631Z,11.40
2018-09-08T01:31:36.509Z,11.40
2018-09-08T01:34:04.043Z,11.42
2018-09-08T01:36:32.229Z,11.46
2018-09-08T01:38:59.765Z,11.50
2018-09-08T01:41:27.651Z,11.54
2018-09-08T01:43:55.239Z,11.61
2018-09-08T01:46:23.473Z,11.65
2018-09-08T01:48:50.996Z,11.70
2018-09-08T01:51:18.964Z,11.72
2018-09-08T01:53:46.498Z,11.74
2018-09-08T01:56:14.031Z,11.75
2018-09-08T01:58:41.631Z,11.74
2018-09-08T02:01:10.718Z,11.74
2018-09-08T02:03:38.238Z,11.73
2018-09-08T02:06:05.755Z,11.73
2018-09-08T02:08:33.311Z,11.72
2018-09-08T02:11:00.859Z,11.71
2018-09-08T02:13:28.382Z,11.71
2018-09-08T02:15:57.576Z,11.70
2018-09-08T02:18:28.809Z,11.69
2018-09-08T02:20:56.304Z,11.66
2018-09-08T02:23:24.142Z,11.65
2018-09-08T02:25:51.667Z,11.64
2018-09-08T02:28:22.735Z,11.62
2018-09-08T02:30:51.775Z,11.60
2018-09-08T02:33:19.271Z,11.57
2018-09-08T02:35:47.049Z,11.55
2018-09-08T02:38:14.563Z,11.52
2018-09-08T02:40:42.493Z,11.53
2018-09-08T02:43:10.090Z,11.56
2018-09-08T02:45:37.665Z,11.58
2018-09-08T02:48:06.491Z,11.59
2018-09-08T02:50:35.150Z,11.62
2018-09-08T02:53:04.283Z,11.64
2018-09-08T02:55:33.748Z,11.67
2018-09-08T02:58:02.317Z,11.70
2018-09-08T03:00:30.418Z,11.73
2018-09-08T03:02:57.939Z,11.74
2018-09-08T03:05:25.775Z,11.72
2018-09-08T03:07:53.322Z,11.68
2018-09-08T03:10:24.601Z,11.65
2018-09-08T03:12:53.247Z,11.63
2018-09-08T03:15:21.157Z,11.65
2018-09-08T03:17:48.709Z,11.67
2018-09-08T03:20:16.215Z,11.70
2018-09-08T03:22:43.736Z,11.72
2018-09-08T03:25:13.171Z,11.72
2018-09-08T03:27:40.710Z,11.73
2018-09-08T03:30:08.247Z,11.73
2018-09-08T03:32:35.766Z,11.73
2018-09-08T03:35:03.698Z,11.74
2018-09-08T03:37:31.243Z,11.74
2018-09-08T03:39:58.768Z,11.74
2018-09-08T03:42:27.191Z,11.71
2018-09-08T03:44:55.119Z,11.69
2018-09-08T03:47:22.671Z,11.68
2018-09-08T03:49:50.201Z,11.69
2018-09-08T03:52:17.730Z,11.68
2018-09-08T03:54:45.530Z,11.68
2018-09-08T03:57:13.059Z,11.67
2018-09-08T03:59:40.619Z,11.66
2018-09-08T04:02:08.127Z,11.66
2018-09-08T04:04:36.051Z,11.64
2018-09-08T04:07:03.607Z,11.64
2018-09-08T04:09:31.116Z,11.62
2018-09-08T04:11:58.979Z,11.60
2018-09-08T04:14:26.486Z,11.61
2018-09-08T04:16:54.980Z,11.58
2018-09-08T04:19:23.012Z,11.56
2018-09-08T04:21:50.740Z,11.55
2018-09-08T04:24:18.309Z,11.53
2018-09-08T04:26:45.845Z,11.51
2018-09-08T04:29:13.378Z,11.50
2018-09-08T04:31:42.120Z,11.48
2018-09-08T04:34:14.220Z,11.46
2018-09-08T04:36:42.138Z,11.45
2018-09-08T04:39:10.513Z,11.46
2018-09-08T04:41:38.173Z,11.45
2018-09-08T04:44:05.683Z,11.42
2018-09-08T04:46:33.755Z,11.42
2018-09-08T04:49:01.352Z,11.41
2018-09-08T04:51:28.911Z,11.40
2018-09-08T04:53:56.448Z,11.41
2018-09-08T04:56:24.351Z,11.40
2018-09-08T04:58:51.910Z,11.40
2018-09-08T05:01:19.423Z,11.40
2018-09-08T05:03:46.959Z,11.42
2018-09-08T05:06:14.787Z,11.43
2018-09-08T05:08:42.308Z,11.44
2018-09-08T05:11:09.828Z,11.45
2018-09-08T05:13:38.729Z,11.46
2018-09-08T05:16:06.251Z,11.45
2018-09-08T05:18:35.718Z,11.46
2018-09-08T05:21:03.621Z,11.47
2018-09-08T05:23:31.987Z,11.49
2018-09-08T05:25:59.493Z,11.52
2018-09-08T05:28:27.061Z,11.54
2018-09-08T05:30:54.752Z,11.55
2018-09-08T05:33:23.443Z,11.58
2018-09-08T05:35:51.796Z,11.62
2018-09-08T05:38:19.343Z,11.66
2018-09-08T05:40:47.498Z,11.71
2018-09-08T05:43:16.027Z,11.76
2018-09-08T05:45:44.699Z,11.84
2018-09-08T05:48:12.564Z,11.92
2018-09-08T05:50:40.079Z,11.98
2018-09-08T05:53:07.590Z,12.04
2018-09-08T05:55:35.106Z,12.13
2018-09-08T05:58:02.656Z,12.19
2018-09-08T06:00:31.356Z,12.27
2018-09-08T06:03:00.155Z,12.33
2018-09-08T06:05:27.694Z,12.41
2018-09-08T06:07:55.232Z,12.47
2018-09-08T06:10:24.132Z,12.53
2018-09-08T06:12:52.067Z,12.59
2018-09-08T06:15:21.266Z,12.65
2018-09-08T06:17:49.166Z,12.71
2018-09-08T06:20:16.700Z,12.78
2018-09-08T06:22:44.265Z,12.83
2018-09-08T06:25:12.230Z,12.89
2018-09-08T06:27:40.425Z,12.96
2018-09-08T06:30:07.937Z,13.02
2018-09-08T06:32:35.767Z,13.08
2018-09-08T06:35:03.360Z,13.13
2018-09-08T06:37:30.898Z,13.19
2018-09-08T06:39:58.766Z,13.26
2018-09-08T06:42:26.325Z,13.31
2018-09-08T06:44:53.883Z,13.40
2018-09-08T06:47:21.745Z,13.45
2018-09-08T06:49:49.294Z,13.54
2018-09-08T06:52:16.871Z,13.60
2018-09-08T06:54:44.823Z,13.67
2018-09-08T06:57:12.356Z,13.74
2018-09-08T06:59:39.878Z,13.82
2018-09-08T07:02:07.794Z,13.90
2018-09-08T07:04:36.291Z,13.97
2018-09-08T07:07:03.909Z,14.04
2018-09-08T07:09:31.924Z,14.10
2018-09-08T07:11:59.526Z,14.18
2018-09-08T07:14:27.189Z,14.22
2018-09-08T07:16:55.411Z,14.29
2018-09-08T07:19:24.701Z,14.38
2018-09-08T07:21:52.446Z,14.49
2018-09-08T07:24:22.136Z,14.60
2018-09-08T07:26:49.694Z,14.73
2018-09-08T07:29:18.177Z,14.83
2018-09-08T07:31:46.098Z,14.91
2018-09-08T07:34:13.634Z,14.98
2018-09-08T07:36:41.142Z,15.07
2018-09-08T07:39:09.922Z,15.14
2018-09-08T07:41:37.446Z,15.22
2018-09-08T07:44:05.677Z,15.30
2018-09-08T07:46:34.142Z,15.39
2018-09-08T07:49:01.718Z,15.44
2018-09-08T07:51:29.247Z,15.49
2018-09-08T07:53:57.240Z,15.53
2018-09-08T07:56:24.767Z,15.54
2018-09-08T07:58:52.855Z,15.58
2018-09-08T08:01:21.459Z,15.63
2018-09-08T08:03:49.895Z,15.71
2018-09-08T08:06:18.493Z,15.79
2018-09-08T08:11:19.675Z,16.00
2018-09-08T08:13:48.456Z,16.05
2018-09-08T08:16:16.942Z,16.14
2018-09-08T08:18:44.454Z,16.23
2018-09-08T08:21:14.564Z,16.34
2018-09-08T08:23:42.493Z,16.41
2018-09-08T08:26:10.102Z,16.49
2018-09-08T08:28:38.341Z,16.53
2018-09-08T08:31:07.657Z,16.57
2018-09-08T08:33:35.259Z,16.62
2018-09-08T08:36:03.006Z,16.67
2018-09-08T08:38:31.106Z,16.70
2018-09-08T08:40:59.254Z,16.79
2018-09-08T08:43:26.779Z,16.93
2018-09-08T08:45:55.725Z,17.03
2018-09-08T08:48:23.276Z,17.13
2018-09-08T08:50:52.386Z,17.24
2018-09-08T08:53:21.332Z,17.32
2018-09-08T08:55:49.855Z,17.43
2018-09-08T08:58:17.424Z,17.48
2018-09-08T09:00:45.378Z,17.58
2018-09-08T09:03:14.451Z,17.65
2018-09-08T09:05:41.994Z,17.70
2018-09-08T09:08:09.877Z,17.74
2018-09-08T09:10:38.036Z,17.79
2018-09-08T09:13:05.768Z,17.84
2018-09-08T09:15:34.691Z,17.81
2018-09-08T09:18:02.014Z,17.82
2018-09-08T09:20:29.540Z,17.88
2018-09-08T09:22:57.550Z,17.96
2018-09-08T09:25:25.900Z,18.09
2018-09-08T09:27:53.594Z,18.17
2018-09-08T09:30:24.674Z,18.33
2018-09-08T09:32:54.642Z,18.57
2018-09-08T09:35:25.909Z,18.69
2018-09-08T09:37:53.485Z,18.81
2018-09-08T09:40:22.082Z,18.84
2018-09-08T09:42:50.040Z,18.90
2018-09-08T09:45:17.587Z,18.84
2018-09-08T09:47:45.124Z,18.79
2018-09-08T09:50:13.812Z,18.77
2018-09-08T09:52:42.021Z,19.11
2018-09-08T09:55:09.687Z,19.21
2018-09-08T09:57:39.324Z,19.05
2018-09-08T10:00:09.155Z,19.17
2018-09-08T10:02:45.770Z,19.34
2018-09-08T10:05:14.845Z,20.03
2018-09-08T10:07:42.466Z,20.90
2018-09-08T10:10:10.501Z,21.42
2018-09-08T10:12:38.754Z,21.26
2018-09-08T10:15:07.182Z,21.04
2018-09-08T10:17:34.780Z,20.93
2018-09-08T10:20:03.763Z,20.47
2018-09-08T10:22:31.786Z,20.55
2018-09-08T10:24:59.336Z,21.73
2018-09-08T10:27:28.377Z,22.71
2018-09-08T10:29:57.662Z,22.46
2018-09-08T10:32:25.439Z,22.06
2018-09-08T10:34:53.477Z,22.24
2018-09-08T10:37:21.231Z,21.86
2018-09-08T10:39:48.821Z,21.38
2018-09-08T10:42:16.665Z,20.97
2018-09-08T10:44:44.283Z,21.16
2018-09-08T10:47:12.942Z,21.08
2018-09-08T10:49:40.984Z,21.01
2018-09-08T10:52:08.521Z,20.67
2018-09-08T10:54:36.983Z,20.52
2018-09-08T10:57:04.862Z,21.26
2018-09-08T10:59:32.373Z,22.13
2018-09-08T11:02:01.162Z,22.10
2018-09-08T11:04:29.052Z,22.20
2018-09-08T11:06:56.567Z,22.80
2018-09-08T11:09:24.868Z,23.66
2018-09-08T11:11:52.844Z,23.54
2018-09-08T11:14:20.415Z,24.32
2018-09-08T11:16:51.119Z,25.36
2018-09-08T11:19:21.220Z,26.33
2018-09-08T11:21:49.749Z,27.10
2018-09-08T11:24:17.337Z,27.42
2018-09-08T11:26:45.235Z,26.96
2018-09-08T11:29:16.839Z,26.79
2018-09-08T11:31:44.527Z,26.01
2018-09-08T11:34:12.414Z,25.56
2018-09-08T11:36:40.687Z,25.77
2018-09-08T11:39:09.639Z,25.27
2018-09-08T11:41:38.973Z,25.10
2018-09-08T11:44:07.350Z,25.35
2018-09-08T11:46:36.403Z,25.83
2018-09-08T11:49:05.067Z,26.60
2018-09-08T11:51:36.522Z,27.23
2018-09-08T11:54:04.034Z,27.58
2018-09-08T11:56:34.580Z,27.82
2018-09-08T11:59:02.120Z,27.34
2018-09-08T12:01:29.690Z,26.72
2018-09-08T12:04:00.248Z,27.16
2018-09-08T12:06:32.421Z,26.84
2018-09-08T12:09:00.667Z,25.68
2018-09-08T12:11:28.543Z,24.74
2018-09-08T12:13:57.192Z,24.07
2018-09-08T12:16:24.771Z,24.18
2018-09-08T12:18:55.585Z,24.95
2018-09-08T12:21:23.829Z,26.00
2018-09-08T12:23:51.343Z,26.68
2018-09-08T12:26:19.534Z,27.00
2018-09-08T12:28:47.106Z,27.37
2018-09-08T12:31:14.711Z,27.40
2018-09-08T12:33:43.719Z,26.70
2018-09-08T12:36:12.201Z,26.35
2018-09-08T12:38:39.735Z,26.51
2018-09-08T12:41:07.753Z,27.05
2018-09-08T12:43:36.081Z,26.88
2018-09-08T12:46:04.139Z,25.87
2018-09-08T12:48:32.456Z,25.08
2018-09-08T12:50:59.993Z,25.57
2018-09-08T12:53:28.606Z,26.37
2018-09-08T12:55:57.475Z,26.75
2018-09-08T12:58:25.114Z,26.31
2018-09-08T13:00:52.663Z,25.87
2018-09-08T13:03:21.650Z,25.50
2018-09-08T13:05:49.221Z,25.32
2018-09-08T13:08:16.759Z,25.22
2018-09-08T13:10:47.116Z,25.11
2018-09-08T13:13:15.250Z,24.90
2018-09-08T13:15:42.788Z,24.80
2018-09-08T13:18:10.659Z,24.74
2018-09-08T13:20:38.248Z,24.84
2018-09-08T13:23:07.038Z,24.81
2018-09-08T13:25:36.629Z,24.66
2018-09-08T13:28:06.171Z,24.53
2018-09-08T13:30:33.743Z,24.30
2018-09-08T13:33:02.778Z,24.15
2018-09-08T13:38:04.293Z,23.66
2018-09-08T13:40:33.957Z,23.41
2018-09-08T13:43:01.927Z,23.12
2018-09-08T13:45:30.065Z,22.87
2018-09-08T13:47:58.449Z,22.77
2018-09-08T13:50:26.122Z,22.72
2018-09-08T13:52:54.701Z,22.61
2018-09-08T13:55:23.426Z,22.54
2018-09-08T13:57:52.111Z,22.55
2018-09-08T14:00:20.687Z,22.58
2018-09-08T14:02:49.367Z,22.57
2018-09-08T14:05:17.576Z,22.52
2018-09-08T14:07:53.023Z,22.41
2018-09-08T14:10:20.887Z,22.32
2018-09-08T14:12:49.239Z,22.21
2018-09-08T14:15:16.829Z,22.08
2018-09-08T14:17:44.798Z,21.94
2018-09-08T14:20:12.322Z,21.79
2018-09-08T14:22:41.629Z,21.66
2018-09-08T14:25:10.910Z,21.56
2018-09-08T14:27:39.684Z,21.66
2018-09-08T14:30:10.178Z,21.90
2018-09-08T14:32:38.674Z,21.96
2018-09-08T14:35:06.287Z,21.96
2018-09-08T14:37:34.350Z,21.99
2018-09-08T14:40:03.759Z,21.88
2018-09-08T14:42:31.394Z,21.87
2018-09-08T14:45:00.091Z,21.91
2018-09-08T14:47:28.092Z,21.80
2018-09-08T14:49:57.978Z,21.66
2018-09-08T14:52:25.523Z,21.50
2018-09-08T14:54:53.446Z,21.34
2018-09-08T14:57:21.789Z,21.32
2018-09-08T14:59:52.031Z,21.41
2018-09-08T15:02:21.872Z,21.59
2018-09-08T15:04:49.531Z,21.79
2018-09-08T15:07:16.970Z,21.93
2018-09-08T15:09:46.043Z,21.96
2018-09-08T15:12:13.570Z,21.85
2018-09-08T15:14:41.100Z,21.71
2018-09-08T15:17:08.990Z,21.62
2018-09-08T15:19:36.516Z,21.59
2018-09-08T15:22:06.813Z,21.55
2018-09-08T15:24:34.931Z,21.47
2018-09-08T15:27:03.378Z,21.41
2018-09-08T15:29:31.750Z,21.37
2018-09-08T15:32:04.555Z,21.32
2018-09-08T15:34:33.320Z,21.22
2018-09-08T15:37:01.696Z,21.11
2018-09-08T15:39:29.531Z,21.04
2018-09-08T15:41:58.030Z,20.94
2018-09-08T15:44:27.256Z,20.82
2018-09-08T15:46:55.431Z,20.68
2018-09-08T15:49:23.271Z,20.59
2018-09-08T15:51:51.139Z,20.57
2018-09-08T15:54:18.979Z,20.65
2018-09-08T15:56:47.107Z,20.83
2018-09-08T15:59:14.894Z,21.10
2018-09-08T16:01:42.511Z,21.30
2018-09-08T16:04:10.079Z,21.30
2018-09-08T16:06:39.119Z,21.24
2018-09-08T16:09:06.664Z,21.19
2018-09-08T16:11:34.942Z,21.13
2018-09-08T16:14:03.199Z,21.04
2018-09-08T16:16:30.759Z,20.95
2018-09-08T16:18:58.342Z,20.85
2018-09-08T16:21:26.428Z,20.75
2018-09-08T16:23:53.967Z,20.66
2018-09-08T16:26:22.530Z,20.60
2018-09-08T16:28:50.502Z,20.53
2018-09-08T16:31:18.077Z,20.48
2018-09-08T16:33:45.859Z,20.43
2018-09-08T16:36:13.727Z,20.38
2018-09-08T16:38:41.440Z,20.30
2018-09-08T16:41:10.231Z,20.23
2018-09-08T16:43:38.139Z,20.15
2018-09-08T16:46:06.973Z,20.07
2018-09-08T16:48:34.584Z,20.01
2018-09-08T16:51:03.519Z,19.94
2018-09-08T16:53:31.661Z,19.87
2018-09-08T16:56:01.546Z,19.83
2018-09-08T16:58:30.130Z,19.74
2018-09-08T17:00:57.714Z,19.69
2018-09-08T17:03:25.268Z,19.65
2018-09-08T17:05:53.409Z,19.59
2018-09-08T17:08:21.727Z,19.53
2018-09-08T17:10:50.335Z,19.47
2018-09-08T17:13:18.302Z,19.41
2018-09-08T17:15:46.690Z,19.35
2018-09-08T17:18:14.486Z,19.30
2018-09-08T17:20:43.127Z,19.23
2018-09-08T17:23:10.738Z,19.18
2018-09-08T17:25:38.393Z,19.11
2018-09-08T17:28:06.347Z,19.06
2018-09-08T17:30:37.436Z,19.01
2018-09-08T17:33:06.305Z,18.97
2018-09-08T17:35:34.911Z,18.91
2018-09-08T17:38:02.514Z,18.88
2018-09-08T17:40:30.986Z,18.85
2018-09-08T17:42:59.182Z,18.80
2018-09-08T17:45:26.831Z,18.76
2018-09-08T17:47:54.373Z,18.72
2018-09-08T17:50:22.411Z,18.69
2018-09-08T17:52:51.458Z,18.63
2018-09-08T17:55:20.399Z,18.60
2018-09-08T17:57:50.557Z,18.56
2018-09-08T18:00:18.913Z,18.52
2018-09-08T18:02:46.475Z,18.48
2018-09-08T18:05:14.330Z,18.44
2018-09-08T18:07:42.550Z,18.39
2018-09-08T18:10:10.580Z,18.35
2018-09-08T18:12:39.240Z,18.28
2018-09-08T18:15:07.666Z,18.22
2018-09-08T18:17:35.203Z,18.14
2018-09-08T18:20:03.105Z,18.08
2018-09-08T18:22:30.670Z,18.02
2018-09-08T18:24:58.216Z,17.98
2018-09-08T18:27:26.806Z,17.92
2018-09-08T18:29:56.785Z,17.88
2018-09-08T18:32:24.355Z,17.83
2018-09-08T18:34:52.361Z,17.82
2018-09-08T18:37:19.940Z,17.79
2018-09-08T18:39:48.043Z,17.78
2018-09-08T18:42:16.797Z,17.74
2018-09-08T18:44:44.368Z,17.72
2018-09-08T18:47:12.719Z,17.70
2018-09-08T18:49:40.611Z,17.68
2018-09-08T18:52:08.175Z,17.64
2018-09-08T18:54:35.733Z,17.62
2018-09-08T18:57:04.725Z,17.57
2018-09-08T18:59:33.245Z,17.51
2018-09-08T19:02:02.913Z,17.48
2018-09-08T19:04:31.760Z,17.43
2018-09-08T19:07:02.345Z,17.38
2018-09-08T19:09:31.202Z,17.33
2018-09-08T19:12:00.878Z,17.26
2018-09-08T19:14:33.440Z,17.17
2018-09-08T19:17:01.290Z,17.09
2018-09-08T19:19:29.912Z,17.03
2018-09-08T19:21:58.051Z,16.99
2018-09-08T19:24:31.390Z,16.93
2018-09-08T19:27:02.299Z,16.88
2018-09-08T19:29:34.966Z,16.86
2018-09-08T19:32:08.224Z,16.84
2018-09-08T19:34:36.207Z,16.83
2018-09-08T19:37:03.740Z,16.83
2018-09-08T19:39:31.292Z,16.83
2018-09-08T19:42:00.433Z,16.83
2018-09-08T19:44:27.972Z,16.81
2018-09-08T19:47:01.076Z,16.77
2018-09-08T19:52:02.213Z,16.68
2018-09-08T19:54:30.770Z,16.64
2018-09-08T19:57:05.033Z,16.63
2018-09-08T19:59:33.156Z,16.62
2018-09-08T20:02:01.607Z,16.59
2018-09-08T20:04:29.626Z,16.55
2018-09-08T20:06:58.028Z,16.53
2018-09-08T20:09:27.596Z,16.51
2018-09-08T20:11:56.270Z,16.50
2018-09-08T20:14:23.798Z,16.46
2018-09-08T20:16:53.117Z,16.44
2018-09-08T20:19:21.500Z,16.43
2018-09-08T20:21:50.563Z,16.42
2018-09-08T20:24:21.994Z,16.40
2018-09-08T20:26:51.257Z,16.39
2018-09-08T20:29:19.647Z,16.38
2018-09-08T20:31:51.433Z,16.38
2018-09-08T20:34:19.526Z,16.37
2018-09-08T20:36:47.702Z,16.38
2018-09-08T20:39:21.450Z,16.38
2018-09-08T20:41:49.411Z,16.38
2018-09-08T20:44:18.487Z,16.38
2018-09-08T20:46:47.328Z,16.40
2018-09-08T20:49:15.300Z,16.39
2018-09-08T20:51:44.404Z,16.40
2018-09-08T20:54:18.188Z,16.41
2018-09-08T20:56:46.408Z,16.42
2018-09-08T20:59:15.560Z,16.43
2018-09-08T21:01:44.855Z,16.45
2018-09-08T21:04:14.102Z,16.47
2018-09-08T21:06:43.195Z,16.48
2018-09-08T21:09:12.207Z,16.47
2018-09-08T21:11:40.120Z,16.46
2018-09-08T21:14:08.668Z,16.44
2018-09-08T21:16:37.658Z,16.43
2018-09-08T21:19:07.106Z,16.40
2018-09-08T21:21:37.236Z,16.38
2018-09-08T21:24:04.786Z,16.38
2018-09-08T21:26:32.803Z,16.34
2018-09-08T21:29:00.488Z,16.30
2018-09-08T21:31:28.623Z,16.26
2018-09-08T21:33:56.511Z,16.19
2018-09-08T21:36:24.087Z,16.15
2018-09-08T21:38:51.646Z,16.10
2018-09-08T21:41:19.556Z,16.07
2018-09-08T21:43:48.064Z,16.07
2018-09-08T21:46:16.339Z,16.05
2018-09-08T21:48:45.310Z,16.06
2018-09-08T21:51:13.655Z,16.04
2018-09-08T21:53:43.477Z,16.03
2018-09-08T21:56:11.432Z,16.02
2018-09-08T21:58:39.986Z,16.00
2018-09-08T22:01:12.645Z,16.00
2018-09-08T22:03:46.068Z,15.99
2018-09-08T22:06:13.630Z,15.99
2018-09-08T22:08:41.612Z,15.98
2018-09-08T22:11:10.570Z,15.96
2018-09-08T22:13:42.278Z,15.95
2018-09-08T22:16:10.103Z,15.92
2018-09-08T22:18:37.648Z,15.89
2018-09-08T22:21:07.777Z,15.88
2018-09-08T22:23:36.992Z,15.83
2018-09-08T22:26:05.698Z,15.81
2018-09-08T22:28:35.253Z,15.78
2018-09-08T22:31:04.406Z,15.75
2018-09-08T22:33:32.762Z,15.72
2018-09-08T22:36:00.573Z,15.69
2018-09-08T22:38:29.646Z,15.67
2018-09-08T22:40:58.138Z,15.64
2018-09-08T22:43:25.706Z,15.62
2018-09-08T22:45:57.322Z,15.58
2018-09-08T22:48:24.851Z,15.57
2018-09-08T22:50:53.782Z,15.56
2018-09-08T22:53:24.099Z,15.56
2018-09-08T22:55:51.682Z,15.57
2018-09-08T22:58:19.255Z,15.54
2018-09-08T23:00:47.459Z,15.51
2018-09-08T23:03:15.836Z,15.47
2018-09-08T23:05:43.375Z,15.40
2018-09-08T23:08:13.826Z,15.32
2018-09-08T23:10:43.831Z,15.23
2018-09-08T23:13:12.449Z,15.16
2018-09-08T23:15:43.251Z,15.11
2018-09-08T23:18:11.760Z,15.08
2018-09-08T23:20:39.307Z,15.09
2018-09-08T23:23:09.676Z,15.08
2018-09-08T23:25:37.599Z,15.08
2018-09-08T23:28:09.604Z,15.08
2018-09-08T23:30:37.446Z,15.09
2018-09-08T23:33:04.963Z,15.10
2018-09-08T23:35:32.486Z,15.14
2018-09-08T23:38:00.321Z,15.17
2018-09-08T23:40:27.898Z,15.21
2018-09-08T23:42:55.460Z,15.23
2018-09-08T23:45:23.430Z,15.25
2018-09-08T23:47:51.240Z,15.29
2018-09-08T23:50:18.834Z,15.32
2018-09-08T23:52:46.834Z,15.37
2018-09-08T23:55:15.250Z,15.40
2018-09-08T23:57:43.120Z,15.43
